sensor_id;sensor_type;location;lat;lon;timestamp;pressure;altitude;pressure_sealevel;temperature;humidity
21574;BME280;10948;48.706;9.258;2023-12-07T00:00:05;98103.25;;;2.42;100.00
21574;BME280;10948;48.706;9.258;2023-12-07T00:02:31;98100.81;;;2.36;100.00
21574;BME280;10948;48.706;9.258;2023-12-07T00:04:56;98103.13;;;2.48;100.00
21574;BME280;10948;48.706;9.258;2023-12-07T00:07:21;98104.00;;;2.47;100.00
21574;BME280;10948;48.706;9.258;2023-12-07T00:09:46;98107.28;;;2.52;100.00
21574;BME280;10948;48.706;9.258;2023-12-07T00:12:11;98103.91;;;2.50;100.00
21574;BME280;10948;48.706;9.258;2023-12-07T00:14:37;98109.00;;;2.53;100.00
21574;BME280;10948;48.706;9.258;2023-12-07T00:17:02;98115.69;;;2.60;100.00
21574;BME280;10948;48.706;9.258;2023-12-07T00:19:27;98113.16;;;2.57;100.00
21574;BME280;10948;48.706;9.258;2023-12-07T00:21:53;98115.81;;;2.54;100.00
21574;BME280;10948;48.706;9.258;2023-12-07T00:24:18;98111.31;;;2.63;100.00
21574;BME280;10948;48.706;9.258;2023-12-07T00:26:43;98117.78;;;2.78;100.00
21574;BME280;10948;48.706;9.258;2023-12-07T00:29:08;98112.88;;;2.69;100.00
21574;BME280;10948;48.706;9.258;2023-12-07T00:31:34;98111.63;;;2.85;100.00
21574;BME280;10948;48.706;9.258;2023-12-07T00:33:59;98121.50;;;2.66;100.00
21574;BME280;10948;48.706;9.258;2023-12-07T00:36:24;98118.34;;;2.55;100.00
21574;BME280;10948;48.706;9.258;2023-12-07T00:38:51;98111.50;;;2.54;100.00
21574;BME280;10948;48.706;9.258;2023-12-07T00:41:16;98119.31;;;2.50;100.00
21574;BME280;10948;48.706;9.258;2023-12-07T00:43:42;98114.28;;;2.47;100.00
21574;BME280;10948;48.706;9.258;2023-12-07T00:46:07;98122.00;;;2.45;100.00
21574;BME280;10948;48.706;9.258;2023-12-07T00:48:33;98123.63;;;2.49;100.00
21574;BME280;10948;48.706;9.258;2023-12-07T00:50:58;98124.47;;;2.50;100.00
21574;BME280;10948;48.706;9.258;2023-12-07T00:53:23;98129.88;;;2.38;100.00
21574;BME280;10948;48.706;9.258;2023-12-07T00:55:48;98133.06;;;2.47;100.00
21574;BME280;10948;48.706;9.258;2023-12-07T00:58:14;98130.34;;;2.55;100.00
21574;BME280;10948;48.706;9.258;2023-12-07T01:00:39;98118.78;;;2.36;100.00
21574;BME280;10948;48.706;9.258;2023-12-07T01:03:04;98126.00;;;2.57;100.00
21574;BME280;10948;48.706;9.258;2023-12-07T01:05:30;98131.00;;;2.63;100.00
21574;BME280;10948;48.706;9.258;2023-12-07T01:07:55;98126.09;;;2.54;100.00
21574;BME280;10948;48.706;9.258;2023-12-07T01:10:21;98132.97;;;2.52;100.00
21574;BME280;10948;48.706;9.258;2023-12-07T01:12:46;98137.06;;;2.60;100.00
21574;BME280;10948;48.706;9.258;2023-12-07T01:15:11;98139.72;;;2.56;100.00
21574;BME280;10948;48.706;9.258;2023-12-07T01:17:37;98139.59;;;2.62;100.00
21574;BME280;10948;48.706;9.258;2023-12-07T01:20:03;98149.50;;;2.77;100.00
21574;BME280;10948;48.706;9.258;2023-12-07T01:22:29;98143.06;;;2.61;100.00
21574;BME280;10948;48.706;9.258;2023-12-07T01:24:54;98148.13;;;2.62;100.00
21574;BME280;10948;48.706;9.258;2023-12-07T01:27:19;98155.06;;;2.59;100.00
21574;BME280;10948;48.706;9.258;2023-12-07T01:29:44;98155.16;;;2.56;100.00
21574;BME280;10948;48.706;9.258;2023-12-07T01:32:10;98156.97;;;2.51;100.00
21574;BME280;10948;48.706;9.258;2023-12-07T01:34:35;98158.66;;;2.52;100.00
21574;BME280;10948;48.706;9.258;2023-12-07T01:37:00;98152.84;;;2.44;100.00
21574;BME280;10948;48.706;9.258;2023-12-07T01:39:25;98154.50;;;2.46;100.00
21574;BME280;10948;48.706;9.258;2023-12-07T01:41:51;98156.91;;;2.54;100.00
21574;BME280;10948;48.706;9.258;2023-12-07T01:44:16;98164.00;;;2.43;100.00
21574;BME280;10948;48.706;9.258;2023-12-07T01:46:41;98157.38;;;2.33;100.00
21574;BME280;10948;48.706;9.258;2023-12-07T01:49:07;98161.75;;;2.29;100.00
21574;BME280;10948;48.706;9.258;2023-12-07T01:51:33;98167.22;;;2.13;100.00
21574;BME280;10948;48.706;9.258;2023-12-07T01:53:58;98159.66;;;2.07;100.00
21574;BME280;10948;48.706;9.258;2023-12-07T01:56:24;98158.13;;;1.97;100.00
21574;BME280;10948;48.706;9.258;2023-12-07T01:58:50;98158.88;;;2.02;100.00
21574;BME280;10948;48.706;9.258;2023-12-07T02:01:16;98162.44;;;1.95;100.00
21574;BME280;10948;48.706;9.258;2023-12-07T02:03:41;98162.22;;;2.05;100.00
21574;BME280;10948;48.706;9.258;2023-12-07T02:06:06;98168.47;;;1.94;100.00
21574;BME280;10948;48.706;9.258;2023-12-07T02:08:33;98170.06;;;1.98;100.00
21574;BME280;10948;48.706;9.258;2023-12-07T02:10:59;98168.50;;;1.91;100.00
21574;BME280;10948;48.706;9.258;2023-12-07T02:13:24;98170.81;;;2.04;100.00
21574;BME280;10948;48.706;9.258;2023-12-07T02:15:50;98166.59;;;2.02;100.00
21574;BME280;10948;48.706;9.258;2023-12-07T02:18:25;98165.00;;;1.95;100.00
21574;BME280;10948;48.706;9.258;2023-12-07T02:23:37;98167.38;;;2.05;100.00
21574;BME280;10948;48.706;9.258;2023-12-07T02:29:05;98155.78;;;1.86;100.00
21574;BME280;10948;48.706;9.258;2023-12-07T02:31:30;98159.09;;;1.93;100.00
21574;BME280;10948;48.706;9.258;2023-12-07T02:33:56;98160.94;;;1.85;100.00
21574;BME280;10948;48.706;9.258;2023-12-07T02:36:22;98166.44;;;1.67;100.00
21574;BME280;10948;48.706;9.258;2023-12-07T02:38:49;98164.97;;;1.54;100.00
21574;BME280;10948;48.706;9.258;2023-12-07T02:41:15;98167.41;;;1.60;100.00
21574;BME280;10948;48.706;9.258;2023-12-07T02:43:41;98167.28;;;1.66;100.00
21574;BME280;10948;48.706;9.258;2023-12-07T02:46:06;98169.25;;;1.52;100.00
21574;BME280;10948;48.706;9.258;2023-12-07T02:48:32;98168.47;;;1.48;100.00
21574;BME280;10948;48.706;9.258;2023-12-07T02:50:57;98161.84;;;1.35;100.00
21574;BME280;10948;48.706;9.258;2023-12-07T02:53:22;98161.13;;;1.29;100.00
21574;BME280;10948;48.706;9.258;2023-12-07T02:55:47;98158.97;;;1.55;100.00
21574;BME280;10948;48.706;9.258;2023-12-07T02:58:13;98160.84;;;1.44;100.00
21574;BME280;10948;48.706;9.258;2023-12-07T03:00:38;98157.53;;;1.39;100.00
21574;BME280;10948;48.706;9.258;2023-12-07T03:03:03;98162.22;;;1.14;100.00
21574;BME280;10948;48.706;9.258;2023-12-07T03:05:28;98168.31;;;1.09;100.00
21574;BME280;10948;48.706;9.258;2023-12-07T03:07:54;98172.66;;;1.05;100.00
21574;BME280;10948;48.706;9.258;2023-12-07T03:10:19;98174.34;;;1.05;100.00
21574;BME280;10948;48.706;9.258;2023-12-07T03:12:44;98168.50;;;0.97;100.00
21574;BME280;10948;48.706;9.258;2023-12-07T03:15:09;98178.41;;;1.18;100.00
21574;BME280;10948;48.706;9.258;2023-12-07T03:17:35;98170.06;;;1.07;100.00
21574;BME280;10948;48.706;9.258;2023-12-07T03:20:00;98170.28;;;0.92;100.00
21574;BME280;10948;48.706;9.258;2023-12-07T03:22:25;98171.88;;;0.99;100.00
21574;BME280;10948;48.706;9.258;2023-12-07T03:24:51;98170.44;;;0.83;100.00
21574;BME280;10948;48.706;9.258;2023-12-07T03:27:17;98173.69;;;0.94;100.00
21574;BME280;10948;48.706;9.258;2023-12-07T03:29:42;98173.00;;;0.83;100.00
21574;BME280;10948;48.706;9.258;2023-12-07T03:32:07;98175.56;;;0.84;100.00
21574;BME280;10948;48.706;9.258;2023-12-07T03:34:33;98172.91;;;0.90;100.00
21574;BME280;10948;48.706;9.258;2023-12-07T03:36:58;98173.97;;;0.74;100.00
21574;BME280;10948;48.706;9.258;2023-12-07T03:39:23;98174.06;;;0.70;100.00
21574;BME280;10948;48.706;9.258;2023-12-07T03:41:50;98169.72;;;0.75;100.00
21574;BME280;10948;48.706;9.258;2023-12-07T03:44:15;98179.97;;;0.73;100.00
21574;BME280;10948;48.706;9.258;2023-12-07T03:46:41;98175.66;;;0.75;100.00
21574;BME280;10948;48.706;9.258;2023-12-07T03:49:06;98179.34;;;0.58;100.00
21574;BME280;10948;48.706;9.258;2023-12-07T03:51:31;98176.75;;;0.61;100.00
21574;BME280;10948;48.706;9.258;2023-12-07T03:53:56;98180.88;;;0.71;100.00
21574;BME280;10948;48.706;9.258;2023-12-07T03:56:22;98188.78;;;0.56;100.00
21574;BME280;10948;48.706;9.258;2023-12-07T03:58:48;98186.22;;;0.56;100.00
21574;BME280;10948;48.706;9.258;2023-12-07T04:01:13;98184.47;;;0.58;100.00
21574;BME280;10948;48.706;9.258;2023-12-07T04:03:38;98191.16;;;0.68;100.00
21574;BME280;10948;48.706;9.258;2023-12-07T04:06:03;98196.28;;;0.68;100.00
21574;BME280;10948;48.706;9.258;2023-12-07T04:08:29;98190.94;;;0.81;100.00
21574;BME280;10948;48.706;9.258;2023-12-07T04:10:54;98195.19;;;0.82;100.00
21574;BME280;10948;48.706;9.258;2023-12-07T04:13:19;98199.81;;;0.61;100.00
21574;BME280;10948;48.706;9.258;2023-12-07T04:15:45;98199.09;;;0.48;100.00
21574;BME280;10948;48.706;9.258;2023-12-07T04:18:10;98199.19;;;0.44;100.00
21574;BME280;10948;48.706;9.258;2023-12-07T04:20:35;98200.91;;;0.43;100.00
21574;BME280;10948;48.706;9.258;2023-12-07T04:23:00;98200.94;;;0.39;100.00
21574;BME280;10948;48.706;9.258;2023-12-07T04:25:26;98200.13;;;0.37;100.00
21574;BME280;10948;48.706;9.258;2023-12-07T04:27:51;98201.88;;;0.32;100.00
21574;BME280;10948;48.706;9.258;2023-12-07T04:30:16;98201.13;;;0.25;100.00
21574;BME280;10948;48.706;9.258;2023-12-07T04:32:41;98203.56;;;0.33;100.00
21574;BME280;10948;48.706;9.258;2023-12-07T04:35:06;98202.75;;;0.31;100.00
21574;BME280;10948;48.706;9.258;2023-12-07T04:37:33;98206.25;;;0.25;100.00
21574;BME280;10948;48.706;9.258;2023-12-07T04:39:58;98198.59;;;0.24;100.00
21574;BME280;10948;48.706;9.258;2023-12-07T04:42:24;98204.44;;;0.32;100.00
21574;BME280;10948;48.706;9.258;2023-12-07T04:44:49;98207.09;;;0.26;100.00
21574;BME280;10948;48.706;9.258;2023-12-07T04:47:14;98207.19;;;0.20;100.00
21574;BME280;10948;48.706;9.258;2023-12-07T04:49:40;98210.56;;;0.22;100.00
21574;BME280;10948;48.706;9.258;2023-12-07T04:52:05;98208.97;;;0.12;100.00
21574;BME280;10948;48.706;9.258;2023-12-07T04:54:30;98200.53;;;0.07;100.00
21574;BME280;10948;48.706;9.258;2023-12-07T04:56:56;98208.94;;;0.15;100.00
21574;BME280;10948;48.706;9.258;2023-12-07T04:59:21;98208.94;;;0.15;100.00
21574;BME280;10948;48.706;9.258;2023-12-07T05:01:47;98207.00;;;0.32;100.00
21574;BME280;10948;48.706;9.258;2023-12-07T05:04:12;98203.56;;;0.34;100.00
21574;BME280;10948;48.706;9.258;2023-12-07T05:06:37;98199.22;;;0.41;100.00
21574;BME280;10948;48.706;9.258;2023-12-07T05:09:02;98205.91;;;0.49;100.00
21574;BME280;10948;48.706;9.258;2023-12-07T05:11:28;98210.94;;;0.55;100.00
21574;BME280;10948;48.706;9.258;2023-12-07T05:13:53;98205.28;;;0.34;100.00
21574;BME280;10948;48.706;9.258;2023-12-07T05:16:18;98208.81;;;0.27;100.00
21574;BME280;10948;48.706;9.258;2023-12-07T05:18:43;98214.88;;;0.20;100.00
21574;BME280;10948;48.706;9.258;2023-12-07T05:21:09;98212.31;;;0.17;100.00
21574;BME280;10948;48.706;9.258;2023-12-07T05:23:34;98214.81;;;0.24;100.00
21574;BME280;10948;48.706;9.258;2023-12-07T05:25:59;98216.44;;;0.28;100.00
21574;BME280;10948;48.706;9.258;2023-12-07T05:28:25;98220.75;;;0.25;100.00
21574;BME280;10948;48.706;9.258;2023-12-07T05:30:50;98213.19;;;0.17;100.00
21574;BME280;10948;48.706;9.258;2023-12-07T05:33:15;98226.00;;;0.13;100.00
21574;BME280;10948;48.706;9.258;2023-12-07T05:35:41;98222.56;;;0.17;100.00
21574;BME280;10948;48.706;9.258;2023-12-07T05:38:06;98220.78;;;0.22;100.00
21574;BME280;10948;48.706;9.258;2023-12-07T05:40:31;98227.81;;;0.06;100.00
21574;BME280;10948;48.706;9.258;2023-12-07T05:42:58;98222.63;;;0.09;100.00
21574;BME280;10948;48.706;9.258;2023-12-07T05:45:24;98224.31;;;0.12;100.00
21574;BME280;10948;48.706;9.258;2023-12-07T05:47:49;98224.44;;;0.03;100.00
21574;BME280;10948;48.706;9.258;2023-12-07T05:50:14;98221.88;;;0.04;100.00
21574;BME280;10948;48.706;9.258;2023-12-07T05:52:39;98221.13;;;-0.05;100.00
21574;BME280;10948;48.706;9.258;2023-12-07T05:55:05;98223.63;;;-0.04;100.00
21574;BME280;10948;48.706;9.258;2023-12-07T05:57:31;98219.31;;;0.03;100.00
21574;BME280;10948;48.706;9.258;2023-12-07T05:59:56;98220.19;;;0.00;100.00
21574;BME280;10948;48.706;9.258;2023-12-07T06:02:21;98216.00;;;-0.05;100.00
21574;BME280;10948;48.706;9.258;2023-12-07T06:04:47;98214.41;;;-0.15;100.00
21574;BME280;10948;48.706;9.258;2023-12-07T06:07:12;98217.94;;;-0.28;100.00
21574;BME280;10948;48.706;9.258;2023-12-07T06:09:37;98223.94;;;-0.29;100.00
21574;BME280;10948;48.706;9.258;2023-12-07T06:12:02;98212.94;;;-0.37;100.00
21574;BME280;10948;48.706;9.258;2023-12-07T06:14:29;98212.06;;;-0.33;100.00
21574;BME280;10948;48.706;9.258;2023-12-07T06:16:54;98214.56;;;-0.30;100.00
21574;BME280;10948;48.706;9.258;2023-12-07T06:19:20;98217.09;;;-0.27;100.00
21574;BME280;10948;48.706;9.258;2023-12-07T06:21:45;98216.25;;;-0.26;100.00
21574;BME280;10948;48.706;9.258;2023-12-07T06:24:11;98216.44;;;-0.44;100.00
21574;BME280;10948;48.706;9.258;2023-12-07T06:26:36;98211.19;;;-0.32;100.00
21574;BME280;10948;48.706;9.258;2023-12-07T06:29:01;98215.56;;;-0.43;100.00
21574;BME280;10948;48.706;9.258;2023-12-07T06:31:27;98201.97;;;-0.45;100.00
21574;BME280;10948;48.706;9.258;2023-12-07T06:33:52;98214.03;;;-0.60;100.00
21574;BME280;10948;48.706;9.258;2023-12-07T06:36:18;98219.16;;;-0.62;100.00
21574;BME280;10948;48.706;9.258;2023-12-07T06:38:44;98218.38;;;-0.70;100.00
21574;BME280;10948;48.706;9.258;2023-12-07T06:41:09;98220.94;;;-0.71;100.00
21574;BME280;10948;48.706;9.258;2023-12-07T06:43:35;98221.59;;;-0.51;100.00
21574;BME280;10948;48.706;9.258;2023-12-07T06:46:01;98226.75;;;-0.56;100.00
21574;BME280;10948;48.706;9.258;2023-12-07T06:48:26;98223.47;;;-0.70;100.00
21574;BME280;10948;48.706;9.258;2023-12-07T06:50:51;98221.78;;;-0.71;100.00
21574;BME280;10948;48.706;9.258;2023-12-07T06:53:17;98220.16;;;-0.78;100.00
21574;BME280;10948;48.706;9.258;2023-12-07T06:55:44;98221.84;;;-0.77;100.00
21574;BME280;10948;48.706;9.258;2023-12-07T06:58:10;98228.63;;;-0.76;100.00
21574;BME280;10948;48.706;9.258;2023-12-07T07:00:35;98229.56;;;-0.84;100.00
21574;BME280;10948;48.706;9.258;2023-12-07T07:03:01;98228.72;;;-0.85;100.00
21574;BME280;10948;48.706;9.258;2023-12-07T07:05:26;98221.84;;;-0.80;100.00
21574;BME280;10948;48.706;9.258;2023-12-07T07:07:52;98221.84;;;-0.78;100.00
21574;BME280;10948;48.706;9.258;2023-12-07T07:10:17;98226.91;;;-0.74;100.00
21574;BME280;10948;48.706;9.258;2023-12-07T07:12:42;98227.81;;;-0.79;100.00
21574;BME280;10948;48.706;9.258;2023-12-07T07:15:08;98225.13;;;-0.63;100.00
21574;BME280;10948;48.706;9.258;2023-12-07T07:17:33;98227.72;;;-0.67;100.00
21574;BME280;10948;48.706;9.258;2023-12-07T07:19:58;98224.41;;;-0.77;100.00
21574;BME280;10948;48.706;9.258;2023-12-07T07:22:23;98225.16;;;-0.66;100.00
21574;BME280;10948;48.706;9.258;2023-12-07T07:24:49;98227.69;;;-0.64;100.00
21574;BME280;10948;48.706;9.258;2023-12-07T07:27:14;98219.97;;;-0.57;100.00
21574;BME280;10948;48.706;9.258;2023-12-07T07:29:39;98223.06;;;-0.28;100.00
21574;BME280;10948;48.706;9.258;2023-12-07T07:32:04;98220.63;;;-0.38;100.00
21574;BME280;10948;48.706;9.258;2023-12-07T07:34:30;98214.69;;;-0.42;100.00
21574;BME280;10948;48.706;9.258;2023-12-07T07:36:56;98214.41;;;-0.15;100.00
21574;BME280;10948;48.706;9.258;2023-12-07T07:39:21;98207.72;;;-0.28;100.00
21574;BME280;10948;48.706;9.258;2023-12-07T07:41:46;98221.06;;;-0.02;100.00
21574;BME280;10948;48.706;9.258;2023-12-07T07:44:12;98223.69;;;-0.07;100.00
21574;BME280;10948;48.706;9.258;2023-12-07T07:46:37;98222.44;;;0.26;100.00
21574;BME280;10948;48.706;9.258;2023-12-07T07:49:02;98235.72;;;0.53;100.00
21574;BME280;10948;48.706;9.258;2023-12-07T07:51:29;98229.56;;;0.68;100.00
21574;BME280;10948;48.706;9.258;2023-12-07T07:53:54;98230.06;;;0.91;100.00
21574;BME280;10948;48.706;9.258;2023-12-07T07:56:19;98240.34;;;1.42;100.00
21574;BME280;10948;48.706;9.258;2023-12-07T07:58:45;98240.00;;;2.09;100.00
21574;BME280;10948;48.706;9.258;2023-12-07T08:01:10;98236.38;;;2.19;100.00
21574;BME280;10948;48.706;9.258;2023-12-07T08:03:35;98237.06;;;2.68;100.00
21574;BME280;10948;48.706;9.258;2023-12-07T08:06:00;98232.00;;;3.38;100.00
21574;BME280;10948;48.706;9.258;2023-12-07T08:08:26;98232.44;;;5.06;100.00
21574;BME280;10948;48.706;9.258;2023-12-07T08:10:51;98229.28;;;5.75;90.71
21574;BME280;10948;48.706;9.258;2023-12-07T08:13:17;98228.19;;;5.30;86.45
21574;BME280;10948;48.706;9.258;2023-12-07T08:15:42;98231.06;;;3.42;94.75
21574;BME280;10948;48.706;9.258;2023-12-07T08:18:07;98222.47;;;3.08;100.00
21574;BME280;10948;48.706;9.258;2023-12-07T08:20:32;98233.28;;;3.87;99.51
21574;BME280;10948;48.706;9.258;2023-12-07T08:22:58;98230.56;;;5.10;93.58
21574;BME280;10948;48.706;9.258;2023-12-07T08:25:23;98232.63;;;3.81;94.66
21574;BME280;10948;48.706;9.258;2023-12-07T08:27:48;98223.53;;;3.68;97.73
21574;BME280;10948;48.706;9.258;2023-12-07T08:30:13;98234.66;;;4.00;97.72
21574;BME280;10948;48.706;9.258;2023-12-07T08:32:39;98227.81;;;4.31;97.84
21574;BME280;10948;48.706;9.258;2023-12-07T08:35:04;98233.16;;;4.83;94.24
21574;BME280;10948;48.706;9.258;2023-12-07T08:37:33;98228.59;;;5.18;92.02
21574;BME280;10948;48.706;9.258;2023-12-07T08:40:00;98224.81;;;5.54;89.96
21574;BME280;10948;48.706;9.258;2023-12-07T08:42:25;98233.66;;;5.73;88.42
21574;BME280;10948;48.706;9.258;2023-12-07T08:44:51;98233.38;;;6.31;87.12
21574;BME280;10948;48.706;9.258;2023-12-07T08:47:17;98230.53;;;7.06;82.97
21574;BME280;10948;48.706;9.258;2023-12-07T08:49:42;98228.81;;;7.48;80.39
21574;BME280;10948;48.706;9.258;2023-12-07T08:52:07;98232.88;;;7.75;77.92
21574;BME280;10948;48.706;9.258;2023-12-07T08:54:32;98227.94;;;8.09;76.00
21574;BME280;10948;48.706;9.258;2023-12-07T08:56:58;98238.84;;;7.97;74.06
21574;BME280;10948;48.706;9.258;2023-12-07T08:59:23;98226.28;;;8.85;73.43
21574;BME280;10948;48.706;9.258;2023-12-07T09:01:49;98224.25;;;9.46;71.57
21574;BME280;10948;48.706;9.258;2023-12-07T09:04:14;98219.31;;;9.58;68.71
21574;BME280;10948;48.706;9.258;2023-12-07T09:06:39;98206.09;;;9.97;67.78
21574;BME280;10948;48.706;9.258;2023-12-07T09:09:05;98203.09;;;10.38;65.98
21574;BME280;10948;48.706;9.258;2023-12-07T09:11:30;98207.88;;;10.78;63.77
21574;BME280;10948;48.706;9.258;2023-12-07T09:13:56;98201.34;;;12.35;61.23
21574;BME280;10948;48.706;9.258;2023-12-07T09:16:21;98204.56;;;13.49;57.78
21574;BME280;10948;48.706;9.258;2023-12-07T09:18:46;98198.28;;;14.55;53.91
21574;BME280;10948;48.706;9.258;2023-12-07T09:21:12;98193.97;;;15.15;51.76
21574;BME280;10948;48.706;9.258;2023-12-07T09:23:37;98188.94;;;15.95;49.72
21574;BME280;10948;48.706;9.258;2023-12-07T09:26:02;98193.63;;;16.81;47.75
21574;BME280;10948;48.706;9.258;2023-12-07T09:28:28;98192.34;;;17.61;46.01
21574;BME280;10948;48.706;9.258;2023-12-07T09:30:53;98181.22;;;17.58;45.34
21574;BME280;10948;48.706;9.258;2023-12-07T09:33:19;98184.25;;;17.20;43.84
21574;BME280;10948;48.706;9.258;2023-12-07T09:35:44;98184.56;;;19.71;43.00
21574;BME280;10948;48.706;9.258;2023-12-07T09:38:09;98190.81;;;17.79;43.28
21574;BME280;10948;48.706;9.258;2023-12-07T09:40:35;98193.25;;;17.71;42.60
21574;BME280;10948;48.706;9.258;2023-12-07T09:43:00;98180.78;;;17.73;43.14
21574;BME280;10948;48.706;9.258;2023-12-07T09:45:25;98182.63;;;17.93;42.12
21574;BME280;10948;48.706;9.258;2023-12-07T09:47:51;98194.28;;;18.73;41.83
21574;BME280;10948;48.706;9.258;2023-12-07T09:50:17;98186.16;;;17.40;42.23
21574;BME280;10948;48.706;9.258;2023-12-07T09:52:43;98184.97;;;18.07;41.54
21574;BME280;10948;48.706;9.258;2023-12-07T09:55:08;98175.03;;;18.91;41.82
21574;BME280;10948;48.706;9.258;2023-12-07T09:57:34;98162.81;;;19.20;40.27
21574;BME280;10948;48.706;9.258;2023-12-07T10:00:01;98156.94;;;19.07;39.92
21574;BME280;10948;48.706;9.258;2023-12-07T10:02:27;98162.03;;;20.34;38.36
21574;BME280;10948;48.706;9.258;2023-12-07T10:05:04;98167.06;;;19.70;38.36
21574;BME280;10948;48.706;9.258;2023-12-07T10:07:33;98167.66;;;18.85;39.25
21574;BME280;10948;48.706;9.258;2023-12-07T10:10:02;98159.78;;;21.21;38.81
21574;BME280;10948;48.706;9.258;2023-12-07T10:12:28;98162.03;;;22.13;37.26
21574;BME280;10948;48.706;9.258;2023-12-07T10:14:53;98153.00;;;20.17;37.41
21574;BME280;10948;48.706;9.258;2023-12-07T10:17:19;98143.66;;;20.32;37.70
21574;BME280;10948;48.706;9.258;2023-12-07T10:19:44;98138.06;;;20.45;38.13
21574;BME280;10948;48.706;9.258;2023-12-07T10:22:15;98136.22;;;20.91;36.88
21574;BME280;10948;48.706;9.258;2023-12-07T10:24:41;98137.38;;;21.78;36.62
21574;BME280;10948;48.706;9.258;2023-12-07T10:27:06;98137.75;;;21.21;37.21
21574;BME280;10948;48.706;9.258;2023-12-07T10:29:35;98135.22;;;21.99;36.83
21574;BME280;10948;48.706;9.258;2023-12-07T10:32:01;98133.94;;;20.04;36.95
21574;BME280;10948;48.706;9.258;2023-12-07T10:34:27;98128.47;;;20.90;37.34
21574;BME280;10948;48.706;9.258;2023-12-07T10:36:53;98123.28;;;21.15;37.29
21574;BME280;10948;48.706;9.258;2023-12-07T10:39:20;98112.81;;;20.96;36.91
21574;BME280;10948;48.706;9.258;2023-12-07T10:41:46;98110.81;;;20.25;37.89
21574;BME280;10948;48.706;9.258;2023-12-07T10:44:13;98120.03;;;20.31;37.87
21574;BME280;10948;48.706;9.258;2023-12-07T10:46:39;98118.66;;;19.32;38.51
21574;BME280;10948;48.706;9.258;2023-12-07T10:49:07;98113.09;;;19.44;39.36
21574;BME280;10948;48.706;9.258;2023-12-07T10:51:58;98106.34;;;19.02;40.51
21574;BME280;10948;48.706;9.258;2023-12-07T10:54:22;98114.69;;;17.24;42.47
21574;BME280;10948;48.706;9.258;2023-12-07T10:56:47;98105.22;;;16.36;44.63
21574;BME280;10948;48.706;9.258;2023-12-07T10:59:15;98106.94;;;13.63;47.05
21574;BME280;10948;48.706;9.258;2023-12-07T11:01:41;98100.47;;;13.93;49.86
21574;BME280;10948;48.706;9.258;2023-12-07T11:04:08;98112.50;;;13.32;50.27
21574;BME280;10948;48.706;9.258;2023-12-07T11:06:36;98109.63;;;13.49;50.45
21574;BME280;10948;48.706;9.258;2023-12-07T11:09:02;98100.88;;;12.97;51.02
21574;BME280;10948;48.706;9.258;2023-12-07T11:13:59;98075.81;;;13.07;52.49
21574;BME280;10948;48.706;9.258;2023-12-07T11:16:35;98075.59;;;12.29;52.83
21574;BME280;10948;48.706;9.258;2023-12-07T11:19:00;98066.84;;;12.02;53.35
21574;BME280;10948;48.706;9.258;2023-12-07T11:21:26;98070.53;;;12.54;53.70
21574;BME280;10948;48.706;9.258;2023-12-07T11:23:52;98061.97;;;12.52;52.56
21574;BME280;10948;48.706;9.258;2023-12-07T11:26:27;98059.50;;;11.37;52.68
21574;BME280;10948;48.706;9.258;2023-12-07T11:28:54;98054.56;;;12.04;53.69
21574;BME280;10948;48.706;9.258;2023-12-07T11:31:20;98052.59;;;12.21;53.69
21574;BME280;10948;48.706;9.258;2023-12-07T11:33:46;98041.22;;;13.67;52.53
21574;BME280;10948;48.706;9.258;2023-12-07T11:36:13;98039.91;;;12.29;52.20
21574;BME280;10948;48.706;9.258;2023-12-07T11:38:39;98040.88;;;12.00;53.27
21574;BME280;10948;48.706;9.258;2023-12-07T11:41:23;98036.41;;;11.31;53.30
21574;BME280;10948;48.706;9.258;2023-12-07T11:43:49;98034.09;;;11.98;53.78
21574;BME280;10948;48.706;9.258;2023-12-07T11:46:18;98017.34;;;11.44;54.27
21574;BME280;10948;48.706;9.258;2023-12-07T11:48:47;98025.34;;;10.98;54.61
21574;BME280;10948;48.706;9.258;2023-12-07T11:51:13;98010.66;;;10.97;55.46
21574;BME280;10948;48.706;9.258;2023-12-07T11:53:38;98003.69;;;12.11;54.87
21574;BME280;10948;48.706;9.258;2023-12-07T11:56:06;98005.16;;;11.31;53.71
21574;BME280;10948;48.706;9.258;2023-12-07T11:58:33;98005.44;;;11.40;54.16
21574;BME280;10948;48.706;9.258;2023-12-07T12:00:59;98009.09;;;11.52;53.77
21574;BME280;10948;48.706;9.258;2023-12-07T12:03:25;97996.78;;;12.24;52.85
21574;BME280;10948;48.706;9.258;2023-12-07T12:05:50;98000.88;;;11.44;53.31
21574;BME280;10948;48.706;9.258;2023-12-07T12:08:16;97986.44;;;10.95;53.62
21574;BME280;10948;48.706;9.258;2023-12-07T12:10:42;97976.47;;;11.17;54.02
21574;BME280;10948;48.706;9.258;2023-12-07T12:13:08;97972.53;;;10.51;54.58
21574;BME280;10948;48.706;9.258;2023-12-07T12:15:34;97977.69;;;10.06;56.10
21574;BME280;10948;48.706;9.258;2023-12-07T12:18:00;97977.53;;;9.77;57.62
21574;BME280;10948;48.706;9.258;2023-12-07T12:20:26;97968.66;;;9.96;57.51
21574;BME280;10948;48.706;9.258;2023-12-07T12:22:52;97969.09;;;10.35;56.90
21574;BME280;10948;48.706;9.258;2023-12-07T12:25:23;97962.53;;;9.66;57.52
21574;BME280;10948;48.706;9.258;2023-12-07T12:27:51;97963.38;;;9.82;57.54
21574;BME280;10948;48.706;9.258;2023-12-07T12:30:17;97960.34;;;9.26;57.79
21574;BME280;10948;48.706;9.258;2023-12-07T12:32:46;97958.06;;;10.90;57.00
21574;BME280;10948;48.706;9.258;2023-12-07T12:35:11;97953.38;;;11.11;56.01
21574;BME280;10948;48.706;9.258;2023-12-07T12:37:38;97950.81;;;9.90;57.23
21574;BME280;10948;48.706;9.258;2023-12-07T12:40:07;97934.50;;;9.40;58.03
21574;BME280;10948;48.706;9.258;2023-12-07T12:42:32;97933.22;;;10.26;57.29
21574;BME280;10948;48.706;9.258;2023-12-07T12:44:58;97928.47;;;10.48;56.64
21574;BME280;10948;48.706;9.258;2023-12-07T12:47:23;97929.38;;;9.87;56.71
21574;BME280;10948;48.706;9.258;2023-12-07T12:49:48;97922.22;;;10.21;57.19
21574;BME280;10948;48.706;9.258;2023-12-07T12:52:16;97918.69;;;10.22;56.63
21574;BME280;10948;48.706;9.258;2023-12-07T12:54:42;97919.28;;;9.96;57.82
21574;BME280;10948;48.706;9.258;2023-12-07T12:57:08;97933.34;;;9.13;58.08
21574;BME280;10948;48.706;9.258;2023-12-07T12:59:33;97924.13;;;9.23;59.57